createdAt,value
2023-04-25T00:01:49.136Z,73.91
2023-04-25T00:04:16.923Z,73.56
2023-04-25T00:06:43.969Z,73.65
2023-04-25T00:09:12.027Z,73.68
2023-04-25T00:11:38.913Z,73.09
2023-04-25T00:14:05.903Z,73.27
2023-04-25T00:16:34.860Z,73.26
2023-04-25T00:19:03.256Z,72.83
2023-04-25T00:21:32.462Z,72.84
2023-04-25T00:23:59.452Z,72.78
2023-04-25T00:26:26.211Z,73.00
2023-04-25T00:28:53.093Z,72.83
2023-04-25T00:31:19.789Z,72.59
2023-04-25T00:33:46.627Z,72.20
2023-04-25T00:36:13.578Z,72.43
2023-04-25T00:38:40.888Z,72.48
2023-04-25T00:41:08.564Z,72.53
2023-04-25T00:43:37.752Z,72.85
2023-04-25T00:46:04.530Z,72.89
2023-04-25T00:48:31.204Z,73.04
2023-04-25T00:50:59.519Z,72.43
2023-04-25T00:53:28.716Z,73.24
2023-04-25T00:55:55.946Z,73.63
2023-04-25T00:58:23.297Z,73.97
2023-04-25T01:00:52.870Z,73.35
2023-04-25T01:03:23.854Z,72.87
2023-04-25T01:05:51.934Z,72.78
2023-04-25T01:08:18.623Z,72.63
2023-04-25T01:10:45.288Z,72.95
2023-04-25T01:13:12.056Z,73.75
2023-04-25T01:15:38.749Z,73.46
2023-04-25T01:18:07.005Z,72.81
2023-04-25T01:20:34.867Z,72.84
2023-04-25T01:23:03.413Z,72.14
2023-04-25T01:25:31.842Z,72.84
2023-04-25T01:27:59.645Z,72.65
2023-04-25T01:30:29.977Z,72.53
2023-04-25T01:32:57.581Z,72.24
2023-04-25T01:35:24.997Z,72.73
2023-04-25T01:37:54.444Z,73.16
2023-04-25T01:40:23.488Z,73.39
2023-04-25T01:42:51.524Z,73.16
2023-04-25T01:45:19.427Z,74.58
2023-04-25T01:47:49.864Z,74.06
2023-04-25T01:50:18.465Z,73.09
2023-04-25T01:52:45.725Z,73.10
2023-04-25T01:55:13.063Z,72.75
2023-04-25T01:57:46.667Z,72.41
2023-04-25T02:00:13.808Z,72.86
2023-04-25T02:02:40.796Z,72.69
2023-04-25T02:05:21.815Z,72.35
2023-04-25T02:07:49.320Z,72.26
2023-04-25T02:10:16.025Z,72.26
2023-04-25T02:12:55.359Z,71.88
2023-04-25T02:15:40.635Z,71.51
2023-04-25T02:18:17.062Z,71.59
2023-04-25T02:20:45.080Z,71.60
2023-04-25T02:23:11.954Z,71.61
2023-04-25T02:25:38.727Z,71.77
2023-04-25T02:28:05.536Z,72.40
2023-04-25T02:30:32.269Z,72.46
2023-04-25T02:32:59.009Z,73.31
2023-04-25T02:35:25.709Z,72.96
2023-04-25T02:37:54.491Z,72.49
2023-04-25T02:40:21.365Z,71.92
2023-04-25T02:42:48.084Z,71.97
2023-04-25T02:45:15.146Z,71.75
2023-04-25T02:47:41.927Z,71.85
2023-04-25T02:50:08.840Z,71.27
2023-04-25T02:52:36.335Z,70.89
2023-04-25T02:55:11.789Z,71.04
2023-04-25T02:57:38.550Z,70.89
2023-04-25T03:00:06.525Z,70.82
2023-04-25T03:02:33.269Z,71.04
2023-04-25T03:05:00.077Z,71.33
2023-04-25T03:07:27.541Z,71.43
2023-04-25T03:09:54.215Z,71.86
2023-04-25T03:12:20.950Z,72.25
2023-04-25T03:14:47.678Z,72.56
2023-04-25T03:17:15.576Z,72.76
2023-04-25T03:19:42.204Z,72.57
2023-04-25T03:22:08.886Z,72.76
2023-04-25T03:24:36.154Z,72.79
2023-04-25T03:27:02.830Z,72.64
2023-04-25T03:29:29.784Z,72.28
2023-04-25T03:31:57.181Z,71.92
2023-04-25T03:34:24.885Z,71.92
2023-04-25T03:36:51.848Z,71.90
2023-04-25T03:39:18.606Z,71.53
2023-04-25T03:41:49.215Z,71.81
2023-04-25T03:44:18.055Z,71.71
2023-04-25T03:46:45.030Z,71.60
2023-04-25T03:49:11.760Z,71.71
2023-04-25T03:52:10.857Z,71.62
2023-04-25T03:54:40.703Z,71.27
2023-04-25T03:57:11.312Z,71.30
2023-04-25T03:59:39.826Z,71.71
2023-04-25T04:02:09.088Z,71.76
2023-04-25T04:04:37.705Z,71.43
2023-04-25T04:07:04.849Z,71.62
2023-04-25T04:09:35.270Z,71.20
2023-04-25T04:12:06.631Z,70.97
2023-04-25T04:14:34.331Z,70.86
2023-04-25T04:17:00.968Z,71.38
2023-04-25T04:19:28.764Z,71.75
2023-04-25T04:22:05.738Z,71.29
2023-04-25T04:24:32.535Z,71.38
2023-04-25T04:27:02.941Z,71.60
2023-04-25T04:29:34.187Z,71.59
2023-04-25T04:32:10.355Z,71.33
2023-04-25T04:34:37.279Z,71.71
2023-04-25T04:37:04.475Z,72.00
2023-04-25T04:39:31.158Z,71.48
2023-04-25T04:42:15.086Z,71.62
2023-04-25T04:45:14.230Z,72.18
2023-04-25T04:47:47.570Z,72.23
2023-04-25T04:50:29.503Z,71.23
2023-04-25T04:53:12.864Z,72.34
2023-04-25T04:56:01.964Z,72.07
2023-04-25T04:58:37.444Z,72.06
2023-04-25T05:01:20.257Z,72.20
2023-04-25T05:04:06.794Z,72.54
2023-04-25T05:06:49.091Z,72.19
2023-04-25T05:09:34.769Z,72.59
2023-04-25T05:12:34.260Z,72.49
2023-04-25T05:15:08.734Z,72.29
2023-04-25T05:18:13.602Z,72.39
2023-04-25T05:20:47.225Z,72.53
2023-04-25T05:23:34.707Z,72.19
2023-04-25T05:26:14.626Z,72.01
2023-04-25T05:28:54.129Z,71.87
2023-04-25T05:31:35.247Z,72.27
2023-04-25T05:34:07.680Z,72.07
2023-04-25T05:36:44.568Z,71.70
2023-04-25T05:39:11.489Z,72.08
2023-04-25T05:41:56.551Z,72.42
2023-04-25T05:44:41.759Z,72.47
2023-04-25T05:47:19.921Z,72.19
2023-04-25T05:50:03.025Z,71.86
2023-04-25T05:52:48.349Z,72.03
2023-04-25T05:55:24.874Z,72.12
2023-04-25T05:57:51.784Z,71.86
2023-04-25T06:00:19.767Z,71.69
2023-04-25T06:02:49.525Z,71.69
2023-04-25T06:05:16.857Z,71.59
2023-04-25T06:07:45.598Z,71.22
2023-04-25T06:10:12.268Z,71.05
2023-04-25T06:12:39.505Z,71.37
2023-04-25T06:15:20.106Z,71.04
2023-04-25T06:17:53.914Z,71.39
2023-04-25T06:20:24.065Z,71.46
2023-04-25T06:22:52.763Z,71.74
2023-04-25T06:25:21.982Z,71.80
2023-04-25T06:27:48.704Z,70.97
2023-04-25T06:30:17.378Z,70.72
2023-04-25T06:32:44.172Z,70.03
2023-04-25T06:35:11.313Z,69.54
2023-04-25T06:37:38.143Z,68.99
2023-04-25T06:40:06.806Z,68.83
2023-04-25T06:42:33.467Z,68.66
2023-04-25T06:45:05.206Z,67.52
2023-04-25T06:47:31.929Z,67.53
2023-04-25T06:50:00.238Z,66.22
2023-04-25T06:52:27.051Z,65.67
2023-04-25T06:54:54.138Z,65.38
2023-04-25T06:57:42.360Z,65.21
2023-04-25T07:00:29.826Z,64.50
2023-04-25T07:02:56.663Z,64.10
2023-04-25T07:05:23.786Z,64.30
2023-04-25T07:07:51.175Z,64.81
2023-04-25T07:10:17.920Z,64.38
2023-04-25T07:12:44.655Z,64.50
2023-04-25T07:15:12.535Z,64.56
2023-04-25T07:17:41.480Z,63.84
2023-04-25T07:20:10.108Z,63.41
2023-04-25T07:22:37.116Z,62.32
2023-04-25T07:25:05.354Z,61.20
2023-04-25T07:27:32.784Z,60.93
2023-04-25T07:30:08.889Z,60.54
2023-04-25T07:32:36.006Z,61.46
2023-04-25T07:35:04.330Z,62.54
2023-04-25T07:37:31.127Z,61.66
2023-04-25T07:40:11.716Z,62.02
2023-04-25T07:42:43.738Z,64.20
2023-04-25T07:45:11.886Z,64.62
2023-04-25T07:47:39.944Z,64.83
2023-04-25T07:50:07.864Z,63.87
2023-04-25T07:52:34.850Z,64.22
2023-04-25T07:55:09.511Z,63.60
2023-04-25T07:57:51.680Z,63.10
2023-04-25T08:00:18.849Z,63.25
2023-04-25T08:02:52.355Z,62.71
2023-04-25T08:05:22.183Z,61.33
2023-04-25T08:07:54.624Z,61.85
2023-04-25T08:10:21.718Z,61.81
2023-04-25T08:12:48.457Z,61.21
2023-04-25T08:15:15.589Z,60.35
2023-04-25T08:17:44.834Z,59.27
2023-04-25T08:20:12.858Z,59.64
2023-04-25T08:22:40.381Z,60.06
2023-04-25T08:25:27.297Z,61.29
2023-04-25T08:27:54.255Z,61.65
2023-04-25T08:30:22.818Z,62.05
2023-04-25T08:32:50.878Z,63.05
2023-04-25T08:35:30.787Z,62.29
2023-04-25T08:37:57.470Z,62.24
2023-04-25T08:40:30.953Z,61.48
2023-04-25T08:43:04.309Z,61.40
2023-04-25T08:45:32.980Z,61.17
2023-04-25T08:47:59.995Z,62.03
2023-04-25T08:50:27.435Z,62.01
2023-04-25T08:52:55.433Z,61.67
2023-04-25T08:55:23.622Z,61.14
2023-04-25T08:57:55.728Z,60.47
2023-04-25T09:00:23.806Z,58.52
2023-04-25T09:02:51.253Z,58.77
2023-04-25T09:05:21.590Z,58.79
2023-04-25T09:07:51.292Z,58.64
2023-04-25T09:10:18.081Z,58.59
2023-04-25T09:12:44.931Z,56.36
2023-04-25T09:15:20.378Z,56.14
2023-04-25T09:18:03.681Z,55.38
2023-04-25T09:20:59.741Z,52.88
2023-04-25T09:23:27.681Z,48.98
2023-04-25T09:25:54.757Z,46.31
2023-04-25T09:28:28.589Z,47.18
2023-04-25T09:30:58.669Z,47.84
2023-04-25T09:33:36.795Z,49.20
2023-04-25T09:36:10.134Z,47.90
2023-04-25T09:39:01.607Z,47.21
2023-04-25T09:41:30.228Z,48.17
2023-04-25T09:44:01.432Z,48.55
2023-04-25T09:46:37.463Z,48.10
2023-04-25T09:49:09.058Z,44.99
2023-04-25T09:52:01.962Z,42.85
2023-04-25T09:54:54.828Z,43.86
2023-04-25T09:57:29.057Z,41.20
2023-04-25T09:59:57.820Z,40.82
2023-04-25T10:02:29.432Z,41.16
2023-04-25T10:05:07.099Z,41.62
2023-04-25T10:07:39.938Z,42.35
2023-04-25T10:10:13.761Z,41.06
2023-04-25T10:12:41.426Z,40.27
2023-04-25T10:15:10.122Z,40.93
2023-04-25T10:17:36.873Z,39.73
2023-04-25T10:20:10.738Z,37.25
2023-04-25T10:22:40.688Z,33.33
2023-04-25T10:25:09.222Z,29.59
2023-04-25T10:27:36.457Z,29.31
2023-04-25T10:30:12.071Z,29.04
2023-04-25T10:32:38.877Z,26.52
2023-04-25T10:35:16.552Z,26.09
2023-04-25T10:37:59.510Z,25.22
2023-04-25T10:40:27.235Z,22.43
2023-04-25T10:42:55.658Z,21.41
2023-04-25T10:45:23.126Z,20.96
2023-04-25T10:47:49.969Z,21.19
2023-04-25T10:50:20.134Z,22.49
2023-04-25T10:52:46.816Z,23.79
2023-04-25T10:55:13.605Z,25.06
2023-04-25T10:57:47.150Z,25.65
2023-04-25T11:00:19.584Z,24.22
2023-04-25T11:02:55.133Z,24.73
2023-04-25T11:05:30.154Z,24.42
2023-04-25T11:08:07.765Z,26.40
2023-04-25T11:10:38.520Z,26.40
2023-04-25T11:13:08.283Z,26.09
2023-04-25T11:15:34.956Z,24.93
2023-04-25T11:18:02.463Z,25.12
2023-04-25T11:20:29.823Z,27.35
2023-04-25T11:23:00.048Z,29.71
2023-04-25T11:25:26.787Z,31.39
2023-04-25T11:27:54.947Z,32.33
2023-04-25T11:30:22.456Z,32.95
2023-04-25T11:32:49.680Z,35.28
2023-04-25T11:35:16.768Z,36.39
2023-04-25T11:37:44.674Z,37.38
2023-04-25T11:40:12.621Z,37.72
2023-04-25T11:42:48.789Z,39.64
2023-04-25T11:45:16.452Z,40.81
2023-04-25T11:47:43.385Z,39.22
2023-04-25T11:50:10.917Z,40.59
2023-04-25T11:52:42.523Z,40.41
2023-04-25T11:55:11.625Z,40.41
2023-04-25T11:57:40.468Z,41.53
2023-04-25T12:00:28.035Z,41.68
2023-04-25T12:02:56.624Z,40.02
2023-04-25T12:05:33.203Z,39.87
2023-04-25T12:08:17.291Z,39.79
2023-04-25T12:10:46.812Z,38.94
2023-04-25T12:13:29.008Z,37.64
2023-04-25T12:15:57.110Z,36.68
2023-04-25T12:18:26.648Z,36.36
2023-04-25T12:20:54.235Z,38.28
2023-04-25T12:23:29.111Z,37.58
2023-04-25T12:25:56.864Z,38.59
2023-04-25T12:28:25.182Z,38.90
2023-04-25T12:31:00.043Z,38.92
2023-04-25T12:33:30.515Z,38.07
2023-04-25T12:35:58.511Z,37.79
2023-04-25T12:38:31.360Z,37.63
2023-04-25T12:40:59.485Z,38.33
2023-04-25T12:43:26.493Z,38.51
2023-04-25T12:45:55.083Z,39.80
2023-04-25T12:48:22.850Z,39.27
2023-04-25T12:50:51.507Z,39.06
2023-04-25T12:53:23.431Z,39.79
2023-04-25T12:55:50.113Z,39.01
2023-04-25T12:58:18.446Z,39.54
2023-04-25T13:00:46.433Z,39.13
2023-04-25T13:03:13.540Z,38.74
2023-04-25T13:05:40.972Z,40.88
2023-04-25T13:08:07.643Z,41.82
2023-04-25T13:10:39.153Z,42.30
2023-04-25T13:13:05.994Z,42.66
2023-04-25T13:15:33.181Z,42.68
2023-04-25T13:17:59.959Z,43.28
2023-04-25T13:20:26.673Z,42.51
2023-04-25T13:22:53.385Z,41.95
2023-04-25T13:25:20.147Z,41.85
2023-04-25T13:27:47.413Z,41.25
2023-04-25T13:30:14.777Z,41.10
2023-04-25T13:32:42.019Z,40.60
2023-04-25T13:35:11.615Z,39.13
2023-04-25T13:37:39.470Z,38.43
2023-04-25T13:40:10.458Z,37.71
2023-04-25T13:42:40.518Z,36.69
2023-04-25T13:45:08.524Z,36.74
2023-04-25T13:47:35.921Z,37.75
2023-04-25T13:50:04.091Z,37.54
2023-04-25T13:52:31.624Z,39.07
2023-04-25T13:54:58.750Z,39.20
2023-04-25T13:57:26.380Z,39.54
2023-04-25T13:59:53.865Z,39.98
2023-04-25T14:02:20.609Z,39.56
2023-04-25T14:04:47.251Z,39.24
2023-04-25T14:07:16.989Z,39.25
2023-04-25T14:09:43.666Z,39.06
2023-04-25T14:12:10.314Z,38.52
2023-04-25T14:14:36.958Z,37.75
2023-04-25T14:17:04.382Z,38.08
2023-04-25T14:19:31.087Z,38.45
2023-04-25T14:21:57.980Z,38.75
2023-04-25T14:24:24.690Z,38.38
2023-04-25T14:26:51.575Z,38.95
2023-04-25T14:29:18.219Z,39.11
2023-04-25T14:31:46.032Z,37.86
2023-04-25T14:34:12.998Z,38.50
2023-04-25T14:36:39.799Z,38.14
2023-04-25T14:39:06.473Z,37.44
2023-04-25T14:41:33.289Z,38.25
2023-04-25T14:44:00.030Z,37.77
2023-04-25T14:46:27.624Z,38.03
2023-04-25T14:48:56.672Z,38.04
2023-04-25T14:51:23.389Z,39.06
2023-04-25T14:53:50.225Z,38.99
2023-04-25T14:56:17.024Z,39.61
2023-04-25T14:58:43.893Z,39.21
2023-04-25T15:01:10.787Z,39.55
2023-04-25T15:03:37.594Z,38.59
2023-04-25T15:06:04.596Z,39.46
2023-04-25T15:08:31.586Z,38.50
2023-04-25T15:10:58.684Z,39.01
2023-04-25T15:13:26.484Z,38.76
2023-04-25T15:15:55.170Z,39.76
2023-04-25T15:18:23.805Z,39.64
2023-04-25T15:20:52.395Z,37.36
2023-04-25T15:23:19.903Z,37.68
2023-04-25T15:25:47.168Z,37.12
2023-04-25T15:28:17.364Z,37.24
2023-04-25T15:30:44.721Z,36.83
2023-04-25T15:33:11.662Z,36.75
2023-04-25T15:35:38.401Z,36.71
2023-04-25T15:38:05.862Z,36.90
2023-04-25T15:40:33.221Z,36.88
2023-04-25T15:43:00.554Z,37.22
2023-04-25T15:45:27.249Z,36.42
2023-04-25T15:47:56.773Z,36.71
2023-04-25T15:50:24.195Z,37.23
2023-04-25T15:52:51.392Z,38.20
2023-04-25T15:55:19.516Z,38.29
2023-04-25T15:57:46.346Z,38.55
2023-04-25T16:00:15.062Z,39.01
2023-04-25T16:02:43.085Z,39.19
2023-04-25T16:05:11.455Z,39.68
2023-04-25T16:07:39.600Z,39.83
2023-04-25T16:10:07.627Z,40.18
2023-04-25T16:12:34.653Z,38.29
2023-04-25T16:15:01.375Z,37.94
2023-04-25T16:17:29.899Z,38.18
2023-04-25T16:19:57.241Z,38.88
2023-04-25T16:22:23.977Z,38.86
2023-04-25T16:24:51.155Z,38.94
2023-04-25T16:27:17.864Z,39.56
2023-04-25T16:29:44.567Z,39.57
2023-04-25T16:32:11.312Z,38.64
2023-04-25T16:34:38.072Z,38.45
2023-04-25T16:37:04.733Z,38.42
2023-04-25T16:39:31.413Z,38.27
2023-04-25T16:41:58.325Z,38.10
2023-04-25T16:44:25.224Z,38.97
2023-04-25T16:46:52.273Z,39.06
2023-04-25T16:49:19.001Z,38.87
2023-04-25T16:51:46.513Z,38.64
2023-04-25T16:54:13.161Z,38.95
2023-04-25T16:56:39.818Z,39.63
2023-04-25T16:59:06.425Z,38.92
2023-04-25T17:01:33.333Z,39.70
2023-04-25T17:04:00.383Z,39.78
2023-04-25T17:06:27.226Z,41.06
2023-04-25T17:08:54.080Z,39.57
2023-04-25T17:11:21.043Z,39.87
2023-04-25T17:13:47.761Z,39.87
2023-04-25T17:16:16.691Z,39.82
2023-04-25T17:18:43.982Z,40.85
2023-04-25T17:21:10.847Z,41.43
2023-04-25T17:23:37.694Z,41.85
2023-04-25T17:26:04.389Z,41.68
2023-04-25T17:28:31.033Z,41.97
2023-04-25T17:30:58.449Z,41.64
2023-04-25T17:33:26.973Z,41.77
2023-04-25T17:35:54.293Z,41.13
2023-04-25T17:38:21.026Z,41.39
2023-04-25T17:40:47.834Z,41.56
2023-04-25T17:43:14.474Z,41.32
2023-04-25T17:45:41.219Z,41.79
2023-04-25T17:48:08.481Z,41.75
2023-04-25T17:50:35.348Z,41.39
2023-04-25T17:53:05.489Z,41.72
2023-04-25T17:55:32.215Z,41.62
2023-04-25T17:57:58.923Z,42.21
2023-04-25T18:00:25.590Z,41.51
2023-04-25T18:02:52.669Z,42.22
2023-04-25T18:05:19.929Z,42.42
2023-04-25T18:07:46.625Z,41.78
2023-04-25T18:10:14.441Z,41.87
2023-04-25T18:12:41.502Z,40.84
2023-04-25T18:15:09.249Z,41.23
2023-04-25T18:17:42.776Z,41.30
2023-04-25T18:20:13.805Z,41.30
2023-04-25T18:22:41.545Z,42.44
2023-04-25T18:25:11.019Z,42.68
2023-04-25T18:27:38.905Z,42.67
2023-04-25T18:30:08.891Z,42.30
2023-04-25T18:32:35.743Z,42.48
2023-04-25T18:35:02.945Z,42.57
2023-04-25T18:37:30.007Z,43.40
2023-04-25T18:39:59.285Z,43.06
2023-04-25T18:42:25.970Z,43.27
2023-04-25T18:44:52.594Z,43.02
2023-04-25T18:47:19.260Z,43.49
2023-04-25T18:49:46.006Z,42.61
2023-04-25T18:52:15.180Z,42.71
2023-04-25T18:54:42.472Z,42.71
2023-04-25T18:57:09.406Z,42.77
2023-04-25T18:59:36.212Z,43.36
2023-04-25T19:02:05.070Z,43.22
2023-04-25T19:04:32.240Z,43.23
2023-04-25T19:06:59.632Z,43.88
2023-04-25T19:09:26.579Z,44.33
2023-04-25T19:11:53.348Z,44.38
2023-04-25T19:14:20.061Z,44.38
2023-04-25T19:16:46.831Z,44.38
2023-04-25T19:19:13.531Z,44.96
2023-04-25T19:21:41.549Z,44.84
2023-04-25T19:24:08.681Z,44.80
2023-04-25T19:26:35.527Z,44.50
2023-04-25T19:29:10.454Z,45.00
2023-04-25T19:31:38.535Z,45.76
2023-04-25T19:34:06.255Z,45.31
2023-04-25T19:36:33.394Z,45.75
2023-04-25T19:39:04.003Z,45.85
2023-04-25T19:41:32.147Z,46.44
2023-04-25T19:44:04.672Z,48.19
2023-04-25T19:46:34.217Z,48.01
2023-04-25T19:49:01.571Z,47.71
2023-04-25T19:51:29.076Z,48.36
2023-04-25T19:53:55.962Z,48.34
2023-04-25T19:56:23.405Z,47.88
2023-04-25T19:58:51.075Z,47.72
2023-04-25T20:01:18.210Z,47.43
2023-04-25T20:03:45.348Z,47.56
2023-04-25T20:06:12.158Z,47.29
2023-04-25T20:08:38.833Z,47.43
2023-04-25T20:11:05.507Z,47.63
2023-04-25T20:13:32.452Z,48.13
2023-04-25T20:16:01.991Z,48.77
2023-04-25T20:18:29.591Z,49.20
2023-04-25T20:20:56.559Z,49.48
2023-04-25T20:23:23.331Z,49.45
2023-04-25T20:25:50.477Z,49.27
2023-04-25T20:28:17.384Z,49.29
2023-04-25T20:30:44.516Z,49.84
2023-04-25T20:33:11.219Z,49.49
2023-04-25T20:35:37.860Z,49.29
2023-04-25T20:38:04.490Z,49.52
2023-04-25T20:40:31.748Z,49.52
2023-04-25T20:42:58.390Z,49.49
2023-04-25T20:45:29.779Z,50.06
2023-04-25T20:47:56.614Z,50.58
2023-04-25T20:50:23.552Z,51.05
2023-04-25T20:52:50.180Z,51.91
2023-04-25T20:55:16.856Z,52.39
2023-04-25T20:57:43.573Z,52.83
2023-04-25T21:00:20.667Z,52.98
2023-04-25T21:02:47.657Z,52.90
2023-04-25T21:05:14.542Z,53.44
2023-04-25T21:07:41.682Z,53.75
2023-04-25T21:10:08.808Z,54.13
2023-04-25T21:12:36.147Z,54.15
2023-04-25T21:15:04.207Z,54.43
2023-04-25T21:17:31.127Z,54.45
2023-04-25T21:19:57.803Z,54.39
2023-04-25T21:22:24.622Z,54.36
2023-04-25T21:24:53.855Z,54.18
2023-04-25T21:27:20.617Z,54.05
2023-04-25T21:29:47.329Z,54.02
2023-04-25T21:32:17.505Z,54.44
2023-04-25T21:34:44.304Z,55.41
2023-04-25T21:37:11.120Z,55.78
2023-04-25T21:39:37.799Z,55.59
2023-04-25T21:42:08.849Z,55.84
2023-04-25T21:44:36.125Z,56.04
2023-04-25T21:47:03.268Z,55.77
2023-04-25T21:49:30.996Z,55.45
2023-04-25T21:51:57.805Z,55.51
2023-04-25T21:54:24.459Z,55.40
2023-04-25T21:56:53.802Z,55.28
2023-04-25T21:59:23.199Z,55.08
2023-04-25T22:01:50.125Z,55.21
2023-04-25T22:04:17.034Z,55.10
2023-04-25T22:06:45.841Z,55.83
2023-04-25T22:09:13.275Z,56.03
2023-04-25T22:11:40.959Z,56.84
2023-04-25T22:14:07.702Z,56.42
2023-04-25T22:16:34.522Z,56.02
2023-04-25T22:19:01.252Z,56.11
2023-04-25T22:21:28.114Z,56.32
2023-04-25T22:23:56.634Z,56.18
2023-04-25T22:26:25.379Z,56.46
2023-04-25T22:28:52.331Z,56.38
2023-04-25T22:31:19.672Z,56.47
2023-04-25T22:33:47.288Z,56.06
2023-04-25T22:36:14.671Z,56.90
2023-04-25T22:38:41.676Z,57.45
2023-04-25T22:41:08.904Z,57.83
2023-04-25T22:43:39.699Z,57.55
2023-04-25T22:46:07.383Z,57.26
2023-04-25T22:48:34.054Z,57.79
2023-04-25T22:51:05.082Z,57.23
2023-04-25T22:53:34.008Z,57.63
2023-04-25T22:56:00.876Z,57.23
2023-04-25T22:58:27.526Z,57.20
2023-04-25T23:00:54.618Z,56.67
2023-04-25T23:03:21.546Z,57.06
2023-04-25T23:05:48.350Z,56.95
2023-04-25T23:08:17.007Z,57.07
2023-04-25T23:10:43.915Z,57.07
2023-04-25T23:13:11.278Z,56.51
2023-04-25T23:15:37.902Z,56.82
2023-04-25T23:18:04.852Z,57.07
2023-04-25T23:20:34.483Z,57.33
2023-04-25T23:23:01.162Z,57.94
2023-04-25T23:25:28.308Z,57.19
2023-04-25T23:27:55.002Z,57.31
2023-04-25T23:30:21.810Z,56.94
2023-04-25T23:32:48.552Z,57.07
2023-04-25T23:35:15.385Z,57.59
2023-04-25T23:37:42.350Z,57.57
2023-04-25T23:40:12.725Z,58.37
2023-04-25T23:42:41.016Z,59.17
2023-04-25T23:45:09.197Z,59.21
2023-04-25T23:47:36.277Z,58.79
2023-04-25T23:50:03.997Z,58.77
2023-04-25T23:52:30.724Z,58.05
2023-04-25T23:54:57.498Z,58.43
2023-04-25T23:57:24.202Z,59.00
2023-04-25T23:59:50.861Z,59.41
